Shozuimaru — JD3906 — position and weather

sailwx.info

Track history (hours):
 
Tides and Currents Weather Stations Pressure Air Temp Water Temp Dewpoint Dewpoint Depression Visibility Wind Speed Wind Dir Waves Ship Positions

Shozuimaru

Last reported at 2018-Apr-24 02:24 UTC. Time now 2018-Apr-24 02:38 UTC.
Position N 35°30' E 140°02'.

Length 105 m; draft 5.5 m.

Type: Ship. MMSI: 431006887.

Date/timePositionNaut miles runAvg speedWind from/ knotsBaromVisibWave heightAir tempDewpointWater temp
2018-Apr-24 02:24N 35°30' E 140°02'0 0.0
2018-Apr-24 02:00N 35°30' E 140°02'0 0.0
2018-Apr-24 01:30N 35°30' E 140°02'0 0.0
2018-Apr-24 01:00N 35°30' E 140°02'0 0.0
2018-Apr-24 00:30N 35°30' E 140°02'0 0.0
2018-Apr-24 00:00N 35°30' E 140°02'0 0.0
2018-Apr-23 23:30N 35°30' E 140°02'0 0.5
2018-Apr-23 23:00N 35°30' E 140°02'4 8.2
2018-Apr-23 22:30N 35°33' E 139°59'612.6
2018-Apr-23 22:00N 35°40' E 139°59'1 0.6
2018-Apr-23 20:18N 35°41' E 139°59'0 0.0
2018-Apr-23 19:54N 35°41' E 139°59'0 0.0
2018-Apr-22 23:42N 35°41' E 139°59'0 1.0
2018-Apr-22 23:30N 35°41' E 139°59'5 9.4
2018-Apr-22 23:00N 35°36' E 140°00'0 0.8
2018-Apr-22 22:27N 35°36' E 140°00'0 0.1
2018-Apr-22 21:57N 35°36' E 140°00'0 0.0
2018-Apr-22 21:27N 35°36' E 140°00'0 0.0
2018-Apr-22 20:57N 35°36' E 140°00'0 0.0
2018-Apr-22 20:27N 35°36' E 140°00'0 0.0
2018-Apr-22 19:57N 35°36' E 140°00'0 0.0
2018-Apr-22 19:27N 35°36' E 140°00'0 0.0
2018-Apr-22 19:00N 35°36' E 140°00'0 0.0
2018-Apr-22 18:27N 35°36' E 140°00'0 0.0
2018-Apr-22 17:57N 35°36' E 140°00'0 0.0
2018-Apr-22 17:27N 35°36' E 140°00'0 0.0
2018-Apr-22 16:45N 35°36' E 140°00'0 0.0
2018-Apr-22 16:27N 35°36' E 140°00'0 0.1
2018-Apr-22 15:57N 35°36' E 140°00'0 0.1
2018-Apr-22 15:27N 35°36' E 140°01'0 0.1
2018-Apr-22 14:57N 35°36' E 140°01'0 0.0
2018-Apr-22 14:30N 35°36' E 140°01'0 0.0
2018-Apr-22 13:57N 35°36' E 140°01'0 0.0
2018-Apr-22 13:30N 35°36' E 140°01'0 0.0
2018-Apr-22 12:57N 35°36' E 140°01'0 0.0
2018-Apr-22 12:27N 35°36' E 140°01'0 0.0
2018-Apr-22 12:00N 35°36' E 140°01'0 0.0
2018-Apr-22 11:30N 35°36' E 140°01'0 0.0
2018-Apr-22 11:00N 35°36' E 140°01'0 0.0
2018-Apr-22 10:27N 35°36' E 140°01'0 0.0
2018-Apr-22 10:00N 35°36' E 140°01'0 0.0
2018-Apr-22 09:27N 35°36' E 140°01'0 0.0
2018-Apr-22 08:57N 35°36' E 140°01'0 0.0
2018-Apr-22 08:27N 35°36' E 140°01'0 0.0
2018-Apr-22 07:57N 35°36' E 140°01'0 0.0
2018-Apr-22 07:27N 35°36' E 140°01'0 0.0
2018-Apr-22 06:57N 35°36' E 140°01'0 0.2
2018-Apr-22 06:30N 35°36' E 140°01'3 6.4
2018-Apr-22 05:59N 35°36' E 140°05'0 0.0
2018-Apr-22 05:23N 35°36' E 140°05'0 0.0
2018-Apr-22 04:59N 35°36' E 140°05'0 0.0
2018-Apr-22 04:29N 35°36' E 140°05'0 0.0
2018-Apr-22 03:59N 35°36' E 140°05'0 0.0
2018-Apr-22 03:29N 35°36' E 140°05'0 0.0
2018-Apr-22 02:59N 35°36' E 140°05'0 0.0
2018-Apr-22 02:29N 35°36' E 140°05'0 0.0
2018-Apr-22 01:59N 35°36' E 140°05'0 0.0
2018-Apr-22 01:29N 35°36' E 140°05'0 0.0
2018-Apr-22 00:59N 35°36' E 140°05'0 0.0
2018-Apr-22 00:29N 35°36' E 140°05'0 0.0
2018-Apr-22 00:00N 35°36' E 140°05'1 2.7
2018-Apr-21 23:30N 35°35' E 140°03'510.8
2018-Apr-21 23:00N 35°34' E 139°57'0 0.2
2018-Apr-21 22:25N 35°34' E 139°57'0 0.0
2018-Apr-21 21:55N 35°34' E 139°57'0 0.0
2018-Apr-21 21:28N 35°34' E 139°57'0 0.0
2018-Apr-21 20:58N 35°34' E 139°57'0 0.0
2018-Apr-21 20:28N 35°34' E 139°57'0 0.0
2018-Apr-21 19:58N 35°34' E 139°57'0 0.0
2018-Apr-21 19:28N 35°34' E 139°57'0 0.1
2018-Apr-21 18:43N 35°34' E 139°57'0 0.0
2018-Apr-21 18:25N 35°34' E 139°57'0 0.0
2018-Apr-21 17:55N 35°34' E 139°57'0 0.0
2018-Apr-21 17:16N 35°34' E 139°57'0 0.0
2018-Apr-21 16:58N 35°34' E 139°57'0 0.0
2018-Apr-21 16:28N 35°34' E 139°57'0 0.0
2018-Apr-21 15:58N 35°34' E 139°57'0 0.0
2018-Apr-21 15:19N 35°34' E 139°57'0 0.0
2018-Apr-21 14:58N 35°34' E 139°57'0 0.0
2018-Apr-21 13:29N 35°34' E 139°57'4 8.8
2018-Apr-21 13:00N 35°31' E 140°00'2 1.9
2018-Apr-21 12:12N 35°30' E 140°02'0 0.0
2018-Apr-21 11:48N 35°30' E 140°02'0 0.0
2018-Apr-21 11:18N 35°30' E 140°02'0 0.0
2018-Apr-21 10:30N 35°30' E 140°02'0 0.0
2018-Apr-21 09:42N 35°30' E 140°02'0 0.0
2018-Apr-21 09:24N 35°30' E 140°02'0 0.0
2018-Apr-21 09:00N 35°30' E 140°02'0 0.0
2018-Apr-21 08:06N 35°30' E 140°02'0 0.0
2018-Apr-21 07:51N 35°30' E 140°02'0 0.0
2018-Apr-21 07:21N 35°30' E 140°02'0 0.0
2018-Apr-21 06:54N 35°30' E 140°02'0 0.0
2018-Apr-21 06:18N 35°30' E 140°02'0 0.0
2018-Apr-21 05:45N 35°30' E 140°02'0 0.0
2018-Apr-21 05:30N 35°30' E 140°02'2 3.2
2018-Apr-21 05:00N 35°31' E 140°00'1 1.5
2018-Apr-21 04:30N 35°31' E 139°60'1 1.1
2018-Apr-21 03:56N 35°32' E 139°59'0 0.0
2018-Apr-21 03:26N 35°32' E 139°59'0 0.0
2018-Apr-21 02:59N 35°32' E 139°59'0 0.0
2018-Apr-21 02:29N 35°32' E 139°59'0 0.0
2018-Apr-21 01:59N 35°32' E 139°59'0 0.1
2018-Apr-21 01:29N 35°32' E 139°59'0 0.0
2018-Apr-21 00:56N 35°32' E 139°59'0 0.1
2018-Apr-21 00:29N 35°32' E 139°59'0 0.1
2018-Apr-20 23:56N 35°32' E 139°59'0 0.0
2018-Apr-20 23:26N 35°32' E 139°59'0 0.1
2018-Apr-20 22:53N 35°32' E 139°59'0 0.0
2018-Apr-20 22:29N 35°32' E 139°59'0 0.0
2018-Apr-20 21:59N 35°32' E 139°59'0 0.1
2018-Apr-20 21:29N 35°32' E 139°59'0 0.0
2018-Apr-20 20:56N 35°32' E 139°59'0 0.0
2018-Apr-20 20:29N 35°32' E 139°59'0 0.1
2018-Apr-20 19:53N 35°32' E 139°59'0 0.0
2018-Apr-20 19:29N 35°32' E 139°59'0 0.1
2018-Apr-20 18:59N 35°32' E 139°59'0 0.1
2018-Apr-20 18:26N 35°32' E 139°59'0 0.0
2018-Apr-20 17:59N 35°32' E 139°59'0 0.0
2018-Apr-20 17:29N 35°32' E 139°59'0 0.0
2018-Apr-20 16:56N 35°32' E 139°59'0 0.0
2018-Apr-20 16:29N 35°32' E 139°59'0 0.1
2018-Apr-20 15:59N 35°32' E 139°59'0 0.0
2018-Apr-20 15:29N 35°32' E 139°59'0 0.0
2018-Apr-20 14:56N 35°32' E 139°59'0 0.1
2018-Apr-20 14:29N 35°32' E 139°59'0 0.1
2018-Apr-20 13:56N 35°32' E 139°59'0 0.0
2018-Apr-20 13:29N 35°32' E 139°59'0 0.0
2018-Apr-20 12:56N 35°32' E 139°59'0 0.0
2018-Apr-20 12:29N 35°32' E 139°59'0 0.0
2018-Apr-20 11:56N 35°32' E 139°59'0 0.0
2018-Apr-20 11:26N 35°32' E 139°59'0 0.0
2018-Apr-20 10:56N 35°32' E 139°59'0 0.0
2018-Apr-20 10:29N 35°32' E 139°59'0 0.0
2018-Apr-20 09:56N 35°32' E 139°59'0 0.0
2018-Apr-20 09:26N 35°32' E 139°59'0 0.0
2018-Apr-20 08:59N 35°32' E 139°59'0 0.0
2018-Apr-20 08:29N 35°32' E 139°59'0 0.0
2018-Apr-20 07:59N 35°32' E 139°59'0 0.0
2018-Apr-20 07:29N 35°32' E 139°59'0 0.0
2018-Apr-20 06:56N 35°32' E 139°59'0 0.6
2018-Apr-20 06:30N 35°32' E 139°59'611.2
2018-Apr-20 06:00N 35°36' E 140°04'0 0.9
2018-Apr-20 05:28N 35°36' E 140°05'0 0.0
2018-Apr-20 04:58N 35°36' E 140°05'0 0.0
2018-Apr-20 04:28N 35°36' E 140°05'0 0.0
2018-Apr-20 03:59N 35°36' E 140°05'0 0.0
2018-Apr-20 03:29N 35°36' E 140°05'0 0.0
2018-Apr-20 02:58N 35°36' E 140°05'0 0.0
2018-Apr-20 02:28N 35°36' E 140°05'0 0.0
2018-Apr-20 01:58N 35°36' E 140°05'0 0.0
2018-Apr-20 01:28N 35°36' E 140°05'0 0.0
2018-Apr-20 00:58N 35°36' E 140°05'0 0.0
2018-Apr-20 00:28N 35°36' E 140°05'0 0.0
2018-Apr-20 00:00N 35°36' E 140°05'3 5.4
2018-Apr-19 23:30N 35°35' E 140°02'5 9.7
2018-Apr-19 23:00N 35°34' E 139°56'0 0.1
2018-Apr-19 22:24N 35°34' E 139°56'0 0.1
2018-Apr-19 22:00N 35°34' E 139°56'0 0.0
2018-Apr-19 21:30N 35°34' E 139°56'0 0.0
2018-Apr-19 21:00N 35°34' E 139°56'0 0.0
2018-Apr-19 20:30N 35°34' E 139°56'0 0.0
2018-Apr-19 20:00N 35°34' E 139°56'0 0.0
2018-Apr-19 19:27N 35°34' E 139°56'0 0.0
2018-Apr-19 18:54N 35°34' E 139°56'0 0.0
2018-Apr-19 18:24N 35°34' E 139°56'0 0.0
2018-Apr-19 17:54N 35°34' E 139°56'0 0.0
2018-Apr-19 16:54N 35°34' E 139°56'0 0.0
2018-Apr-19 16:27N 35°34' E 139°56'0 0.0
2018-Apr-19 16:00N 35°34' E 139°56'0 0.0
2018-Apr-19 15:30N 35°34' E 139°56'0 0.0
2018-Apr-19 15:00N 35°34' E 139°56'3 5.2
2018-Apr-19 14:30N 35°32' E 139°58'4 7.0
2018-Apr-19 14:00N 35°30' E 140°02'0 0.0
2018-Apr-19 13:24N 35°30' E 140°02'0 0.0
2018-Apr-19 13:00N 35°30' E 140°02'0 0.0
2018-Apr-19 12:24N 35°30' E 140°02'0 0.0
2018-Apr-19 12:00N 35°30' E 140°02'0 0.0
2018-Apr-19 11:30N 35°30' E 140°02'0 0.0
2018-Apr-19 11:00N 35°30' E 140°02'0 0.0
2018-Apr-19 10:30N 35°30' E 140°02'0 0.0
2018-Apr-19 09:51N 35°30' E 140°02'0 0.0
2018-Apr-19 09:27N 35°30' E 140°02'0 0.0
2018-Apr-19 09:00N 35°30' E 140°02'0 0.0
2018-Apr-19 08:30N 35°30' E 140°02'0 0.0
2018-Apr-19 08:00N 35°30' E 140°02'0 0.0
2018-Apr-19 07:27N 35°30' E 140°02'0 0.0
2018-Apr-19 07:00N 35°30' E 140°02'1 2.8
2018-Apr-19 06:30N 35°31' E 140°00'2 2.8
2018-Apr-19 05:57N 35°32' E 139°60'0 0.1
2018-Apr-19 05:26N 35°32' E 139°60'0 0.0
2018-Apr-19 04:56N 35°32' E 139°60'0 0.1
2018-Apr-19 04:29N 35°32' E 139°60'1 1.4
2018-Apr-19 04:01N 35°33' E 140°00'611.0
2018-Apr-19 03:30N 35°36' E 140°06'0 0.2
2018-Apr-19 02:56N 35°36' E 140°06'0 0.0
2018-Apr-19 02:26N 35°36' E 140°06'0 0.0
2018-Apr-19 01:56N 35°36' E 140°06'0 0.0
2018-Apr-19 01:26N 35°36' E 140°06'0 0.0
2018-Apr-19 00:56N 35°36' E 140°06'0 0.0
2018-Apr-19 00:26N 35°36' E 140°06'0 0.0
2018-Apr-18 23:56N 35°36' E 140°06'0 0.0
2018-Apr-18 23:26N 35°36' E 140°06'0 0.0
2018-Apr-18 22:56N 35°36' E 140°06'0 0.0
2018-Apr-18 22:26N 35°36' E 140°06'0 0.0
2018-Apr-18 21:56N 35°36' E 140°06'0 0.0
2018-Apr-18 21:20N 35°36' E 140°06'0 0.0
2018-Apr-18 20:56N 35°36' E 140°06'0 0.0
2018-Apr-18 20:29N 35°36' E 140°06'0 0.0
2018-Apr-18 19:56N 35°36' E 140°06'0 0.0
2018-Apr-18 19:26N 35°36' E 140°06'0 0.0
2018-Apr-18 18:59N 35°36' E 140°06'0 0.0
2018-Apr-18 18:26N 35°36' E 140°06'0 0.0
2018-Apr-18 17:44N 35°36' E 140°06'0 0.0
2018-Apr-18 17:26N 35°36' E 140°06'0 0.0
2018-Apr-18 16:56N 35°36' E 140°06'0 0.0
2018-Apr-18 16:26N 35°36' E 140°06'0 0.0
2018-Apr-18 15:56N 35°36' E 140°06'0 0.0
2018-Apr-18 15:26N 35°36' E 140°06'0 0.0
2018-Apr-18 14:56N 35°36' E 140°06'0 0.0
2018-Apr-18 14:26N 35°36' E 140°06'0 0.0
2018-Apr-18 13:56N 35°36' E 140°06'0 0.0
2018-Apr-18 13:26N 35°36' E 140°06'0 0.0
2018-Apr-18 12:56N 35°36' E 140°06'0 0.0
2018-Apr-18 12:26N 35°36' E 140°06'0 0.0
2018-Apr-18 11:56N 35°36' E 140°06'0 0.0
2018-Apr-18 11:26N 35°36' E 140°06'0 0.0
2018-Apr-18 10:56N 35°36' E 140°06'0 0.0
2018-Apr-18 10:26N 35°36' E 140°06'0 0.0
2018-Apr-18 09:56N 35°36' E 140°06'0 0.0
2018-Apr-18 09:26N 35°36' E 140°06'0 0.0
2018-Apr-18 08:56N 35°36' E 140°06'0 0.0
2018-Apr-18 08:26N 35°36' E 140°06'0 0.0
2018-Apr-18 07:56N 35°36' E 140°06'0 0.0
2018-Apr-18 07:26N 35°36' E 140°06'0 0.0
2018-Apr-18 06:56N 35°36' E 140°06'0 0.0
2018-Apr-18 06:26N 35°36' E 140°06'0 0.0
2018-Apr-18 05:56N 35°36' E 140°06'0 0.0
2018-Apr-18 05:26N 35°36' E 140°06'0 0.0
2018-Apr-18 04:58N 35°36' E 140°06'1 2.5
2018-Apr-18 04:30N 35°36' E 140°05'0 0.0
2018-Apr-18 03:58N 35°36' E 140°05'0 0.0
2018-Apr-18 03:28N 35°36' E 140°05'0 0.0
2018-Apr-18 02:58N 35°36' E 140°05'0 0.0
2018-Apr-18 02:28N 35°36' E 140°05'0 0.0
2018-Apr-18 01:58N 35°36' E 140°05'0 0.0
2018-Apr-18 01:28N 35°36' E 140°05'0 0.0
2018-Apr-18 00:58N 35°36' E 140°05'0 0.0
2018-Apr-18 00:28N 35°36' E 140°05'0 0.0
2018-Apr-17 23:58N 35°36' E 140°05'0 0.0
2018-Apr-17 23:28N 35°36' E 140°05'0 0.1
2018-Apr-17 23:00N 35°36' E 140°05'4 7.7
2018-Apr-17 22:30N 35°35' E 139°60'4 7.0
2018-Apr-17 21:55N 35°34' E 139°55'0 0.1
2018-Apr-17 21:25N 35°34' E 139°55'0 0.0
2018-Apr-17 20:55N 35°34' E 139°55'0 0.0
2018-Apr-17 20:25N 35°34' E 139°55'0 0.0
2018-Apr-17 19:58N 35°34' E 139°55'0 0.0
2018-Apr-17 19:28N 35°34' E 139°55'0 0.0
2018-Apr-17 18:49N 35°34' E 139°55'0 0.0
2018-Apr-17 18:28N 35°34' E 139°55'0 0.0
2018-Apr-17 17:55N 35°34' E 139°55'0 0.0
2018-Apr-17 17:25N 35°34' E 139°55'0 0.0
2018-Apr-17 16:55N 35°34' E 139°55'0 0.0
2018-Apr-17 16:25N 35°34' E 139°55'0 0.0
2018-Apr-17 15:58N 35°34' E 139°55'0 0.0
2018-Apr-17 15:28N 35°34' E 139°55'0 0.1
2018-Apr-17 14:58N 35°34' E 139°55'0 0.1
2018-Apr-17 14:25N 35°34' E 139°55'0 0.0
2018-Apr-17 13:55N 35°34' E 139°55'0 0.0
2018-Apr-17 13:25N 35°34' E 139°55'0 0.0
2018-Apr-17 12:55N 35°34' E 139°55'0 0.0
2018-Apr-17 12:25N 35°34' E 139°55'0 0.0
2018-Apr-17 11:55N 35°34' E 139°55'0 0.0
2018-Apr-17 11:25N 35°34' E 139°55'0 0.0
2018-Apr-17 10:46N 35°34' E 139°55'0 0.0
2018-Apr-17 10:25N 35°34' E 139°55'0 0.0
2018-Apr-17 09:55N 35°34' E 139°55'0 0.0
2018-Apr-17 09:25N 35°34' E 139°55'0 0.0
2018-Apr-17 08:55N 35°34' E 139°55'0 0.1
2018-Apr-17 08:28N 35°34' E 139°55'0 0.0
2018-Apr-17 07:55N 35°34' E 139°55'0 0.0
2018-Apr-17 07:28N 35°34' E 139°55'0 0.0
2018-Apr-17 06:55N 35°34' E 139°55'0 0.0
2018-Apr-17 06:25N 35°34' E 139°55'0 0.0
2018-Apr-17 05:55N 35°34' E 139°55'0 0.0
2018-Apr-17 05:28N 35°34' E 139°55'0 0.0
2018-Apr-17 04:58N 35°34' E 139°55'0 0.0
2018-Apr-17 04:19N 35°34' E 139°55'0 0.0
2018-Apr-17 03:55N 35°34' E 139°55'0 0.0
2018-Apr-17 03:25N 35°34' E 139°55'0 0.1
2018-Apr-17 02:55N 35°34' E 139°55'0 0.0
2018-Apr-17 02:28N 35°34' E 139°55'0 0.0
2018-Apr-17 01:55N 35°34' E 139°55'0 0.0
2018-Apr-17 01:25N 35°34' E 139°55'0 0.0
2018-Apr-17 00:49N 35°34' E 139°55'0 0.0
2018-Apr-17 00:25N 35°34' E 139°55'0 0.1
2018-Apr-16 23:55N 35°34' E 139°55'0 0.0
2018-Apr-16 23:25N 35°34' E 139°55'0 0.1
2018-Apr-16 22:55N 35°34' E 139°55'0 0.0
2018-Apr-16 22:19N 35°34' E 139°55'0 0.0
2018-Apr-16 21:55N 35°34' E 139°55'0 0.1
2018-Apr-16 21:25N 35°34' E 139°55'0 0.0
2018-Apr-16 20:49N 35°34' E 139°55'0 0.0
2018-Apr-16 20:19N 35°34' E 139°55'0 0.0
2018-Apr-16 19:58N 35°34' E 139°55'0 0.0
2018-Apr-16 19:25N 35°34' E 139°55'0 0.0
2018-Apr-16 18:55N 35°34' E 139°55'0 0.0
2018-Apr-16 18:28N 35°34' E 139°55'0 0.0
2018-Apr-16 17:55N 35°34' E 139°55'0 0.0
2018-Apr-16 17:25N 35°34' E 139°55'0 0.0
2018-Apr-16 16:55N 35°34' E 139°55'0 0.0
2018-Apr-16 16:13N 35°34' E 139°55'0 0.0
2018-Apr-16 15:49N 35°34' E 139°55'0 0.0
2018-Apr-16 15:28N 35°34' E 139°55'0 0.0
2018-Apr-16 14:55N 35°34' E 139°55'0 0.0
2018-Apr-16 14:25N 35°34' E 139°55'0 0.0
2018-Apr-16 13:55N 35°34' E 139°55'0 0.0
2018-Apr-16 13:25N 35°34' E 139°55'0 0.0
2018-Apr-16 12:58N 35°34' E 139°55'0 0.0
2018-Apr-16 12:25N 35°34' E 139°55'0 0.0
2018-Apr-16 11:58N 35°34' E 139°55'0 0.0
2018-Apr-16 11:25N 35°34' E 139°55'0 0.0
2018-Apr-16 10:49N 35°34' E 139°55'0 0.0
2018-Apr-16 10:25N 35°34' E 139°55'0 0.0
2018-Apr-16 09:52N 35°34' E 139°55'0 0.0
2018-Apr-16 09:25N 35°34' E 139°55'0 0.0
2018-Apr-16 08:55N 35°34' E 139°55'0 0.0
2018-Apr-16 08:25N 35°34' E 139°55'0 0.0
2018-Apr-16 07:55N 35°34' E 139°55'0 0.0
2018-Apr-16 07:22N 35°34' E 139°55'0 0.1
2018-Apr-16 06:49N 35°34' E 139°55'1 1.7
2018-Apr-16 06:30N 35°34' E 139°55'611.8
2018-Apr-16 06:00N 35°30' E 140°01'1 1.3
2018-Apr-16 05:30N 35°30' E 140°02'0 0.0
2018-Apr-16 05:00N 35°30' E 140°02'0 0.0
2018-Apr-16 04:21N 35°30' E 140°02'0 0.0
2018-Apr-16 03:57N 35°30' E 140°02'0 0.0
2018-Apr-16 03:27N 35°30' E 140°02'0 0.0
2018-Apr-16 02:57N 35°30' E 140°02'0 0.0
2018-Apr-16 02:18N 35°30' E 140°02'0 0.0
2018-Apr-16 01:57N 35°30' E 140°02'0 0.0
2018-Apr-16 01:30N 35°30' E 140°02'0 0.0
2018-Apr-16 01:00N 35°30' E 140°02'0 0.0
2018-Apr-16 00:27N 35°30' E 140°02'0 0.0
2018-Apr-15 23:51N 35°30' E 140°02'0 0.0
2018-Apr-15 23:30N 35°30' E 140°02'0 0.0
2018-Apr-15 23:00N 35°30' E 140°02'0 0.0
2018-Apr-15 22:30N 35°30' E 140°02'2 3.9
2018-Apr-15 22:00N 35°31' E 140°00'2 3.3
2018-Apr-15 21:30N 35°33' E 140°01'5 9.2
2018-Apr-15 21:00N 35°36' E 140°05'1 1.7
2018-Apr-15 20:29N 35°36' E 140°06'0 0.0
2018-Apr-15 19:59N 35°36' E 140°06'0 0.0
2018-Apr-15 19:29N 35°36' E 140°06'0 0.0
2018-Apr-15 18:59N 35°36' E 140°06'0 0.0
2018-Apr-15 18:29N 35°36' E 140°06'0 0.0
2018-Apr-15 17:59N 35°36' E 140°06'0 0.0
2018-Apr-15 17:29N 35°36' E 140°06'0 0.0
2018-Apr-15 16:59N 35°36' E 140°06'0 0.0
2018-Apr-15 16:29N 35°36' E 140°06'0 0.0
2018-Apr-15 15:59N 35°36' E 140°06'0 0.0
2018-Apr-15 15:29N 35°36' E 140°06'0 0.0
2018-Apr-15 14:59N 35°36' E 140°06'0 0.0
2018-Apr-15 14:29N 35°36' E 140°06'0 0.0
2018-Apr-15 13:59N 35°36' E 140°06'0 0.0
2018-Apr-15 13:29N 35°36' E 140°06'0 0.0
2018-Apr-15 12:59N 35°36' E 140°06'0 0.0
2018-Apr-15 12:29N 35°36' E 140°06'0 0.0
2018-Apr-15 11:59N 35°36' E 140°06'0 0.0
2018-Apr-15 11:29N 35°36' E 140°06'0 0.0
2018-Apr-15 10:59N 35°36' E 140°06'0 0.0
2018-Apr-15 10:29N 35°36' E 140°06'0 0.0
2018-Apr-15 09:59N 35°36' E 140°06'0 0.0
2018-Apr-15 09:29N 35°36' E 140°06'0 0.0
2018-Apr-15 08:59N 35°36' E 140°06'0 0.0
2018-Apr-15 08:29N 35°36' E 140°06'0 0.0
2018-Apr-15 07:59N 35°36' E 140°06'0 0.0
2018-Apr-15 07:29N 35°36' E 140°06'0 0.0
2018-Apr-15 06:59N 35°36' E 140°06'0 0.0
2018-Apr-15 06:29N 35°36' E 140°06'0 0.0
2018-Apr-15 05:59N 35°36' E 140°06'0 0.0
2018-Apr-15 05:29N 35°36' E 140°06'0 0.0
2018-Apr-15 04:59N 35°36' E 140°06'0 0.0
2018-Apr-15 04:29N 35°36' E 140°06'0 0.0
2018-Apr-15 03:59N 35°36' E 140°06'0 0.0
2018-Apr-15 03:29N 35°36' E 140°06'0 0.0
2018-Apr-15 02:59N 35°36' E 140°06'0 0.0
2018-Apr-15 02:23N 35°36' E 140°06'0 0.0
2018-Apr-15 01:59N 35°36' E 140°06'0 0.0
2018-Apr-15 01:29N 35°36' E 140°06'0 0.0
2018-Apr-15 00:59N 35°36' E 140°06'0 0.0
2018-Apr-15 00:29N 35°36' E 140°06'0 0.0
2018-Apr-14 23:59N 35°36' E 140°06'0 0.0
2018-Apr-14 23:29N 35°36' E 140°06'0 0.0
2018-Apr-14 22:59N 35°36' E 140°06'0 0.0
2018-Apr-14 22:29N 35°36' E 140°06'0 0.0
2018-Apr-14 21:59N 35°36' E 140°06'0 0.0
2018-Apr-14 21:29N 35°36' E 140°06'0 0.0
2018-Apr-14 20:59N 35°36' E 140°06'0 0.0
2018-Apr-14 20:29N 35°36' E 140°06'0 0.0
2018-Apr-14 19:59N 35°36' E 140°06'0 0.0
2018-Apr-14 19:29N 35°36' E 140°06'0 0.0
2018-Apr-14 18:59N 35°36' E 140°06'0 0.0
2018-Apr-14 18:29N 35°36' E 140°06'0 0.0
2018-Apr-14 17:59N 35°36' E 140°06'0 0.0
2018-Apr-14 17:23N 35°36' E 140°06'0 0.0
2018-Apr-14 16:59N 35°36' E 140°06'0 0.0
2018-Apr-14 16:29N 35°36' E 140°06'0 0.0
2018-Apr-14 15:59N 35°36' E 140°06'0 0.0
2018-Apr-14 15:29N 35°36' E 140°06'0 0.0
2018-Apr-14 14:59N 35°36' E 140°06'0 0.0
2018-Apr-14 14:29N 35°36' E 140°06'0 0.0
2018-Apr-14 13:59N 35°36' E 140°06'0 0.0
2018-Apr-14 13:29N 35°36' E 140°06'0 0.0
2018-Apr-14 12:59N 35°36' E 140°06'0 0.0
2018-Apr-14 12:29N 35°36' E 140°06'0 0.0
2018-Apr-14 11:59N 35°36' E 140°06'0 0.0
2018-Apr-14 11:29N 35°36' E 140°06'0 0.0
2018-Apr-14 10:59N 35°36' E 140°06'0 0.0
2018-Apr-14 10:29N 35°36' E 140°06'0 0.0
2018-Apr-14 09:59N 35°36' E 140°06'0 0.0
2018-Apr-14 09:29N 35°36' E 140°06'0 0.0
2018-Apr-14 08:59N 35°36' E 140°06'0 0.0
2018-Apr-14 08:29N 35°36' E 140°06'0 0.0
2018-Apr-14 07:59N 35°36' E 140°06'0 0.0
2018-Apr-14 07:29N 35°36' E 140°06'0 0.0
2018-Apr-14 06:59N 35°36' E 140°06'3 6.3
2018-Apr-14 06:30N 35°35' E 140°03'714.5
2018-Apr-14 06:00N 35°32' E 139°55'610.8
2018-Apr-14 05:30N 35°32' E 139°48'0 0.1
2018-Apr-14 04:56N 35°32' E 139°48'0 0.0
2018-Apr-14 04:29N 35°32' E 139°48'0 0.0
2018-Apr-14 03:59N 35°32' E 139°48'0 0.0
2018-Apr-14 03:29N 35°32' E 139°48'0 0.0
2018-Apr-14 02:59N 35°32' E 139°48'0 0.0
2018-Apr-14 02:29N 35°32' E 139°48'  
Track history (hours):
 
Tides and Currents Weather Stations Pressure Air Temp Water Temp Dewpoint Dewpoint Depression Visibility Wind Speed Wind Dir Waves Ship Positions

Shozuimaru

Last reported at 2018-Apr-24 02:24 UTC. Time now 2018-Apr-24 02:38 UTC.
Position N 35°30' E 140°02'.

Length 105 m; draft 5.5 m.

Type: Ship. MMSI: 431006887.

Date/timePositionNaut miles runAvg speedWind from/ knotsBaromVisibWave heightAir tempDewpointWater temp
2018-Apr-24 02:24N 35°30' E 140°02'0 0.0
2018-Apr-24 02:00N 35°30' E 140°02'0 0.0
2018-Apr-24 01:30N 35°30' E 140°02'0 0.0
2018-Apr-24 01:00N 35°30' E 140°02'0 0.0
2018-Apr-24 00:30N 35°30' E 140°02'0 0.0
2018-Apr-24 00:00N 35°30' E 140°02'0 0.0
2018-Apr-23 23:30N 35°30' E 140°02'0 0.5
2018-Apr-23 23:00N 35°30' E 140°02'4 8.2
2018-Apr-23 22:30N 35°33' E 139°59'612.6
2018-Apr-23 22:00N 35°40' E 139°59'1 0.6
2018-Apr-23 20:18N 35°41' E 139°59'0 0.0
2018-Apr-23 19:54N 35°41' E 139°59'0 0.0
2018-Apr-22 23:42N 35°41' E 139°59'0 1.0
2018-Apr-22 23:30N 35°41' E 139°59'5 9.4
2018-Apr-22 23:00N 35°36' E 140°00'0 0.8
2018-Apr-22 22:27N 35°36' E 140°00'0 0.1
2018-Apr-22 21:57N 35°36' E 140°00'0 0.0
2018-Apr-22 21:27N 35°36' E 140°00'0 0.0
2018-Apr-22 20:57N 35°36' E 140°00'0 0.0
2018-Apr-22 20:27N 35°36' E 140°00'0 0.0
2018-Apr-22 19:57N 35°36' E 140°00'0 0.0
2018-Apr-22 19:27N 35°36' E 140°00'0 0.0
2018-Apr-22 19:00N 35°36' E 140°00'0 0.0
2018-Apr-22 18:27N 35°36' E 140°00'0 0.0
2018-Apr-22 17:57N 35°36' E 140°00'0 0.0
2018-Apr-22 17:27N 35°36' E 140°00'0 0.0
2018-Apr-22 16:45N 35°36' E 140°00'0 0.0
2018-Apr-22 16:27N 35°36' E 140°00'0 0.1
2018-Apr-22 15:57N 35°36' E 140°00'0 0.1
2018-Apr-22 15:27N 35°36' E 140°01'0 0.1
2018-Apr-22 14:57N 35°36' E 140°01'0 0.0
2018-Apr-22 14:30N 35°36' E 140°01'0 0.0
2018-Apr-22 13:57N 35°36' E 140°01'0 0.0
2018-Apr-22 13:30N 35°36' E 140°01'0 0.0
2018-Apr-22 12:57N 35°36' E 140°01'0 0.0
2018-Apr-22 12:27N 35°36' E 140°01'0 0.0
2018-Apr-22 12:00N 35°36' E 140°01'0 0.0
2018-Apr-22 11:30N 35°36' E 140°01'0 0.0
2018-Apr-22 11:00N 35°36' E 140°01'0 0.0
2018-Apr-22 10:27N 35°36' E 140°01'0 0.0
2018-Apr-22 10:00N 35°36' E 140°01'0 0.0
2018-Apr-22 09:27N 35°36' E 140°01'0 0.0
2018-Apr-22 08:57N 35°36' E 140°01'0 0.0
2018-Apr-22 08:27N 35°36' E 140°01'0 0.0
2018-Apr-22 07:57N 35°36' E 140°01'0 0.0
2018-Apr-22 07:27N 35°36' E 140°01'0 0.0
2018-Apr-22 06:57N 35°36' E 140°01'0 0.2
2018-Apr-22 06:30N 35°36' E 140°01'3 6.4
2018-Apr-22 05:59N 35°36' E 140°05'0 0.0
2018-Apr-22 05:23N 35°36' E 140°05'0 0.0
2018-Apr-22 04:59N 35°36' E 140°05'0 0.0
2018-Apr-22 04:29N 35°36' E 140°05'0 0.0
2018-Apr-22 03:59N 35°36' E 140°05'0 0.0
2018-Apr-22 03:29N 35°36' E 140°05'0 0.0
2018-Apr-22 02:59N 35°36' E 140°05'0 0.0
2018-Apr-22 02:29N 35°36' E 140°05'0 0.0
2018-Apr-22 01:59N 35°36' E 140°05'0 0.0
2018-Apr-22 01:29N 35°36' E 140°05'0 0.0
2018-Apr-22 00:59N 35°36' E 140°05'0 0.0
2018-Apr-22 00:29N 35°36' E 140°05'0 0.0
2018-Apr-22 00:00N 35°36' E 140°05'1 2.7
2018-Apr-21 23:30N 35°35' E 140°03'510.8
2018-Apr-21 23:00N 35°34' E 139°57'0 0.2
2018-Apr-21 22:25N 35°34' E 139°57'0 0.0
2018-Apr-21 21:55N 35°34' E 139°57'0 0.0
2018-Apr-21 21:28N 35°34' E 139°57'0 0.0
2018-Apr-21 20:58N 35°34' E 139°57'0 0.0
2018-Apr-21 20:28N 35°34' E 139°57'0 0.0
2018-Apr-21 19:58N 35°34' E 139°57'0 0.0
2018-Apr-21 19:28N 35°34' E 139°57'0 0.1
2018-Apr-21 18:43N 35°34' E 139°57'0 0.0
2018-Apr-21 18:25N 35°34' E 139°57'0 0.0
2018-Apr-21 17:55N 35°34' E 139°57'0 0.0
2018-Apr-21 17:16N 35°34' E 139°57'0 0.0
2018-Apr-21 16:58N 35°34' E 139°57'0 0.0
2018-Apr-21 16:28N 35°34' E 139°57'0 0.0
2018-Apr-21 15:58N 35°34' E 139°57'0 0.0
2018-Apr-21 15:19N 35°34' E 139°57'0 0.0
2018-Apr-21 14:58N 35°34' E 139°57'0 0.0
2018-Apr-21 13:29N 35°34' E 139°57'4 8.8
2018-Apr-21 13:00N 35°31' E 140°00'2 1.9
2018-Apr-21 12:12N 35°30' E 140°02'0 0.0
2018-Apr-21 11:48N 35°30' E 140°02'0 0.0
2018-Apr-21 11:18N 35°30' E 140°02'0 0.0
2018-Apr-21 10:30N 35°30' E 140°02'0 0.0
2018-Apr-21 09:42N 35°30' E 140°02'0 0.0
2018-Apr-21 09:24N 35°30' E 140°02'0 0.0
2018-Apr-21 09:00N 35°30' E 140°02'0 0.0
2018-Apr-21 08:06N 35°30' E 140°02'0 0.0
2018-Apr-21 07:51N 35°30' E 140°02'0 0.0
2018-Apr-21 07:21N 35°30' E 140°02'0 0.0
2018-Apr-21 06:54N 35°30' E 140°02'0 0.0
2018-Apr-21 06:18N 35°30' E 140°02'0 0.0
2018-Apr-21 05:45N 35°30' E 140°02'0 0.0
2018-Apr-21 05:30N 35°30' E 140°02'2 3.2
2018-Apr-21 05:00N 35°31' E 140°00'1 1.5
2018-Apr-21 04:30N 35°31' E 139°60'1 1.1
2018-Apr-21 03:56N 35°32' E 139°59'0 0.0
2018-Apr-21 03:26N 35°32' E 139°59'0 0.0
2018-Apr-21 02:59N 35°32' E 139°59'0 0.0
2018-Apr-21 02:29N 35°32' E 139°59'0 0.0
2018-Apr-21 01:59N 35°32' E 139°59'0 0.1
2018-Apr-21 01:29N 35°32' E 139°59'0 0.0
2018-Apr-21 00:56N 35°32' E 139°59'0 0.1
2018-Apr-21 00:29N 35°32' E 139°59'0 0.1
2018-Apr-20 23:56N 35°32' E 139°59'0 0.0
2018-Apr-20 23:26N 35°32' E 139°59'0 0.1
2018-Apr-20 22:53N 35°32' E 139°59'0 0.0
2018-Apr-20 22:29N 35°32' E 139°59'0 0.0
2018-Apr-20 21:59N 35°32' E 139°59'0 0.1
2018-Apr-20 21:29N 35°32' E 139°59'0 0.0
2018-Apr-20 20:56N 35°32' E 139°59'0 0.0
2018-Apr-20 20:29N 35°32' E 139°59'0 0.1
2018-Apr-20 19:53N 35°32' E 139°59'0 0.0
2018-Apr-20 19:29N 35°32' E 139°59'0 0.1
2018-Apr-20 18:59N 35°32' E 139°59'0 0.1
2018-Apr-20 18:26N 35°32' E 139°59'0 0.0
2018-Apr-20 17:59N 35°32' E 139°59'0 0.0
2018-Apr-20 17:29N 35°32' E 139°59'0 0.0
2018-Apr-20 16:56N 35°32' E 139°59'0 0.0
2018-Apr-20 16:29N 35°32' E 139°59'0 0.1
2018-Apr-20 15:59N 35°32' E 139°59'0 0.0
2018-Apr-20 15:29N 35°32' E 139°59'0 0.0
2018-Apr-20 14:56N 35°32' E 139°59'0 0.1
2018-Apr-20 14:29N 35°32' E 139°59'0 0.1
2018-Apr-20 13:56N 35°32' E 139°59'0 0.0
2018-Apr-20 13:29N 35°32' E 139°59'0 0.0
2018-Apr-20 12:56N 35°32' E 139°59'0 0.0
2018-Apr-20 12:29N 35°32' E 139°59'0 0.0
2018-Apr-20 11:56N 35°32' E 139°59'0 0.0
2018-Apr-20 11:26N 35°32' E 139°59'0 0.0
2018-Apr-20 10:56N 35°32' E 139°59'0 0.0
2018-Apr-20 10:29N 35°32' E 139°59'0 0.0
2018-Apr-20 09:56N 35°32' E 139°59'0 0.0
2018-Apr-20 09:26N 35°32' E 139°59'0 0.0
2018-Apr-20 08:59N 35°32' E 139°59'0 0.0
2018-Apr-20 08:29N 35°32' E 139°59'0 0.0
2018-Apr-20 07:59N 35°32' E 139°59'0 0.0
2018-Apr-20 07:29N 35°32' E 139°59'0 0.0
2018-Apr-20 06:56N 35°32' E 139°59'0 0.6
2018-Apr-20 06:30N 35°32' E 139°59'611.2
2018-Apr-20 06:00N 35°36' E 140°04'0 0.9
2018-Apr-20 05:28N 35°36' E 140°05'0 0.0
2018-Apr-20 04:58N 35°36' E 140°05'0 0.0
2018-Apr-20 04:28N 35°36' E 140°05'0 0.0
2018-Apr-20 03:59N 35°36' E 140°05'0 0.0
2018-Apr-20 03:29N 35°36' E 140°05'0 0.0
2018-Apr-20 02:58N 35°36' E 140°05'0 0.0
2018-Apr-20 02:28N 35°36' E 140°05'0 0.0
2018-Apr-20 01:58N 35°36' E 140°05'0 0.0
2018-Apr-20 01:28N 35°36' E 140°05'0 0.0
2018-Apr-20 00:58N 35°36' E 140°05'0 0.0
2018-Apr-20 00:28N 35°36' E 140°05'0 0.0
2018-Apr-20 00:00N 35°36' E 140°05'3 5.4
2018-Apr-19 23:30N 35°35' E 140°02'5 9.7
2018-Apr-19 23:00N 35°34' E 139°56'0 0.1
2018-Apr-19 22:24N 35°34' E 139°56'0 0.1
2018-Apr-19 22:00N 35°34' E 139°56'0 0.0
2018-Apr-19 21:30N 35°34' E 139°56'0 0.0
2018-Apr-19 21:00N 35°34' E 139°56'0 0.0
2018-Apr-19 20:30N 35°34' E 139°56'0 0.0
2018-Apr-19 20:00N 35°34' E 139°56'0 0.0
2018-Apr-19 19:27N 35°34' E 139°56'0 0.0
2018-Apr-19 18:54N 35°34' E 139°56'0 0.0
2018-Apr-19 18:24N 35°34' E 139°56'0 0.0
2018-Apr-19 17:54N 35°34' E 139°56'0 0.0
2018-Apr-19 16:54N 35°34' E 139°56'0 0.0
2018-Apr-19 16:27N 35°34' E 139°56'0 0.0
2018-Apr-19 16:00N 35°34' E 139°56'0 0.0
2018-Apr-19 15:30N 35°34' E 139°56'0 0.0
2018-Apr-19 15:00N 35°34' E 139°56'3 5.2
2018-Apr-19 14:30N 35°32' E 139°58'4 7.0
2018-Apr-19 14:00N 35°30' E 140°02'0 0.0
2018-Apr-19 13:24N 35°30' E 140°02'0 0.0
2018-Apr-19 13:00N 35°30' E 140°02'0 0.0
2018-Apr-19 12:24N 35°30' E 140°02'0 0.0
2018-Apr-19 12:00N 35°30' E 140°02'0 0.0
2018-Apr-19 11:30N 35°30' E 140°02'0 0.0
2018-Apr-19 11:00N 35°30' E 140°02'0 0.0
2018-Apr-19 10:30N 35°30' E 140°02'0 0.0
2018-Apr-19 09:51N 35°30' E 140°02'0 0.0
2018-Apr-19 09:27N 35°30' E 140°02'0 0.0
2018-Apr-19 09:00N 35°30' E 140°02'0 0.0
2018-Apr-19 08:30N 35°30' E 140°02'0 0.0
2018-Apr-19 08:00N 35°30' E 140°02'0 0.0
2018-Apr-19 07:27N 35°30' E 140°02'0 0.0
2018-Apr-19 07:00N 35°30' E 140°02'1 2.8
2018-Apr-19 06:30N 35°31' E 140°00'2 2.8
2018-Apr-19 05:57N 35°32' E 139°60'0 0.1
2018-Apr-19 05:26N 35°32' E 139°60'0 0.0
2018-Apr-19 04:56N 35°32' E 139°60'0 0.1
2018-Apr-19 04:29N 35°32' E 139°60'1 1.4
2018-Apr-19 04:01N 35°33' E 140°00'611.0
2018-Apr-19 03:30N 35°36' E 140°06'0 0.2
2018-Apr-19 02:56N 35°36' E 140°06'0 0.0
2018-Apr-19 02:26N 35°36' E 140°06'0 0.0
2018-Apr-19 01:56N 35°36' E 140°06'0 0.0
2018-Apr-19 01:26N 35°36' E 140°06'0 0.0
2018-Apr-19 00:56N 35°36' E 140°06'0 0.0
2018-Apr-19 00:26N 35°36' E 140°06'0 0.0
2018-Apr-18 23:56N 35°36' E 140°06'0 0.0
2018-Apr-18 23:26N 35°36' E 140°06'0 0.0
2018-Apr-18 22:56N 35°36' E 140°06'0 0.0
2018-Apr-18 22:26N 35°36' E 140°06'0 0.0
2018-Apr-18 21:56N 35°36' E 140°06'0 0.0
2018-Apr-18 21:20N 35°36' E 140°06'0 0.0
2018-Apr-18 20:56N 35°36' E 140°06'0 0.0
2018-Apr-18 20:29N 35°36' E 140°06'0 0.0
2018-Apr-18 19:56N 35°36' E 140°06'0 0.0
2018-Apr-18 19:26N 35°36' E 140°06'0 0.0
2018-Apr-18 18:59N 35°36' E 140°06'0 0.0
2018-Apr-18 18:26N 35°36' E 140°06'0 0.0
2018-Apr-18 17:44N 35°36' E 140°06'0 0.0
2018-Apr-18 17:26N 35°36' E 140°06'0 0.0
2018-Apr-18 16:56N 35°36' E 140°06'0 0.0
2018-Apr-18 16:26N 35°36' E 140°06'0 0.0
2018-Apr-18 15:56N 35°36' E 140°06'0 0.0
2018-Apr-18 15:26N 35°36' E 140°06'0 0.0
2018-Apr-18 14:56N 35°36' E 140°06'0 0.0
2018-Apr-18 14:26N 35°36' E 140°06'0 0.0
2018-Apr-18 13:56N 35°36' E 140°06'0 0.0
2018-Apr-18 13:26N 35°36' E 140°06'0 0.0
2018-Apr-18 12:56N 35°36' E 140°06'0 0.0
2018-Apr-18 12:26N 35°36' E 140°06'0 0.0
2018-Apr-18 11:56N 35°36' E 140°06'0 0.0
2018-Apr-18 11:26N 35°36' E 140°06'0 0.0
2018-Apr-18 10:56N 35°36' E 140°06'0 0.0
2018-Apr-18 10:26N 35°36' E 140°06'0 0.0
2018-Apr-18 09:56N 35°36' E 140°06'0 0.0
2018-Apr-18 09:26N 35°36' E 140°06'0 0.0
2018-Apr-18 08:56N 35°36' E 140°06'0 0.0
2018-Apr-18 08:26N 35°36' E 140°06'0 0.0
2018-Apr-18 07:56N 35°36' E 140°06'0 0.0
2018-Apr-18 07:26N 35°36' E 140°06'0 0.0
2018-Apr-18 06:56N 35°36' E 140°06'0 0.0
2018-Apr-18 06:26N 35°36' E 140°06'0 0.0
2018-Apr-18 05:56N 35°36' E 140°06'0 0.0
2018-Apr-18 05:26N 35°36' E 140°06'0 0.0
2018-Apr-18 04:58N 35°36' E 140°06'1 2.5
2018-Apr-18 04:30N 35°36' E 140°05'0 0.0
2018-Apr-18 03:58N 35°36' E 140°05'0 0.0
2018-Apr-18 03:28N 35°36' E 140°05'0 0.0
2018-Apr-18 02:58N 35°36' E 140°05'0 0.0
2018-Apr-18 02:28N 35°36' E 140°05'0 0.0
2018-Apr-18 01:58N 35°36' E 140°05'0 0.0
2018-Apr-18 01:28N 35°36' E 140°05'0 0.0
2018-Apr-18 00:58N 35°36' E 140°05'0 0.0
2018-Apr-18 00:28N 35°36' E 140°05'0 0.0
2018-Apr-17 23:58N 35°36' E 140°05'0 0.0
2018-Apr-17 23:28N 35°36' E 140°05'0 0.1
2018-Apr-17 23:00N 35°36' E 140°05'4 7.7
2018-Apr-17 22:30N 35°35' E 139°60'4 7.0
2018-Apr-17 21:55N 35°34' E 139°55'0 0.1
2018-Apr-17 21:25N 35°34' E 139°55'0 0.0
2018-Apr-17 20:55N 35°34' E 139°55'0 0.0
2018-Apr-17 20:25N 35°34' E 139°55'0 0.0
2018-Apr-17 19:58N 35°34' E 139°55'0 0.0
2018-Apr-17 19:28N 35°34' E 139°55'0 0.0
2018-Apr-17 18:49N 35°34' E 139°55'0 0.0
2018-Apr-17 18:28N 35°34' E 139°55'0 0.0
2018-Apr-17 17:55N 35°34' E 139°55'0 0.0
2018-Apr-17 17:25N 35°34' E 139°55'0 0.0
2018-Apr-17 16:55N 35°34' E 139°55'0 0.0
2018-Apr-17 16:25N 35°34' E 139°55'0 0.0
2018-Apr-17 15:58N 35°34' E 139°55'0 0.0
2018-Apr-17 15:28N 35°34' E 139°55'0 0.1
2018-Apr-17 14:58N 35°34' E 139°55'0 0.1
2018-Apr-17 14:25N 35°34' E 139°55'0 0.0
2018-Apr-17 13:55N 35°34' E 139°55'0 0.0
2018-Apr-17 13:25N 35°34' E 139°55'0 0.0
2018-Apr-17 12:55N 35°34' E 139°55'0 0.0
2018-Apr-17 12:25N 35°34' E 139°55'0 0.0
2018-Apr-17 11:55N 35°34' E 139°55'0 0.0
2018-Apr-17 11:25N 35°34' E 139°55'0 0.0
2018-Apr-17 10:46N 35°34' E 139°55'0 0.0
2018-Apr-17 10:25N 35°34' E 139°55'0 0.0
2018-Apr-17 09:55N 35°34' E 139°55'0 0.0
2018-Apr-17 09:25N 35°34' E 139°55'0 0.0
2018-Apr-17 08:55N 35°34' E 139°55'0 0.1
2018-Apr-17 08:28N 35°34' E 139°55'0 0.0
2018-Apr-17 07:55N 35°34' E 139°55'0 0.0
2018-Apr-17 07:28N 35°34' E 139°55'0 0.0
2018-Apr-17 06:55N 35°34' E 139°55'0 0.0
2018-Apr-17 06:25N 35°34' E 139°55'0 0.0
2018-Apr-17 05:55N 35°34' E 139°55'0 0.0
2018-Apr-17 05:28N 35°34' E 139°55'0 0.0
2018-Apr-17 04:58N 35°34' E 139°55'0 0.0
2018-Apr-17 04:19N 35°34' E 139°55'0 0.0
2018-Apr-17 03:55N 35°34' E 139°55'0 0.0
2018-Apr-17 03:25N 35°34' E 139°55'0 0.1
2018-Apr-17 02:55N 35°34' E 139°55'0 0.0
2018-Apr-17 02:28N 35°34' E 139°55'0 0.0
2018-Apr-17 01:55N 35°34' E 139°55'0 0.0
2018-Apr-17 01:25N 35°34' E 139°55'0 0.0
2018-Apr-17 00:49N 35°34' E 139°55'0 0.0
2018-Apr-17 00:25N 35°34' E 139°55'0 0.1
2018-Apr-16 23:55N 35°34' E 139°55'0 0.0
2018-Apr-16 23:25N 35°34' E 139°55'0 0.1
2018-Apr-16 22:55N 35°34' E 139°55'0 0.0
2018-Apr-16 22:19N 35°34' E 139°55'0 0.0
2018-Apr-16 21:55N 35°34' E 139°55'0 0.1
2018-Apr-16 21:25N 35°34' E 139°55'0 0.0
2018-Apr-16 20:49N 35°34' E 139°55'0 0.0
2018-Apr-16 20:19N 35°34' E 139°55'0 0.0
2018-Apr-16 19:58N 35°34' E 139°55'0 0.0
2018-Apr-16 19:25N 35°34' E 139°55'0 0.0
2018-Apr-16 18:55N 35°34' E 139°55'0 0.0
2018-Apr-16 18:28N 35°34' E 139°55'0 0.0
2018-Apr-16 17:55N 35°34' E 139°55'0 0.0
2018-Apr-16 17:25N 35°34' E 139°55'0 0.0
2018-Apr-16 16:55N 35°34' E 139°55'0 0.0
2018-Apr-16 16:13N 35°34' E 139°55'0 0.0
2018-Apr-16 15:49N 35°34' E 139°55'0 0.0
2018-Apr-16 15:28N 35°34' E 139°55'0 0.0
2018-Apr-16 14:55N 35°34' E 139°55'0 0.0
2018-Apr-16 14:25N 35°34' E 139°55'0 0.0
2018-Apr-16 13:55N 35°34' E 139°55'0 0.0
2018-Apr-16 13:25N 35°34' E 139°55'0 0.0
2018-Apr-16 12:58N 35°34' E 139°55'0 0.0
2018-Apr-16 12:25N 35°34' E 139°55'0 0.0
2018-Apr-16 11:58N 35°34' E 139°55'0 0.0
2018-Apr-16 11:25N 35°34' E 139°55'0 0.0
2018-Apr-16 10:49N 35°34' E 139°55'0 0.0
2018-Apr-16 10:25N 35°34' E 139°55'0 0.0
2018-Apr-16 09:52N 35°34' E 139°55'0 0.0
2018-Apr-16 09:25N 35°34' E 139°55'0 0.0
2018-Apr-16 08:55N 35°34' E 139°55'0 0.0
2018-Apr-16 08:25N 35°34' E 139°55'0 0.0
2018-Apr-16 07:55N 35°34' E 139°55'0 0.0
2018-Apr-16 07:22N 35°34' E 139°55'0 0.1
2018-Apr-16 06:49N 35°34' E 139°55'1 1.7
2018-Apr-16 06:30N 35°34' E 139°55'611.8
2018-Apr-16 06:00N 35°30' E 140°01'1 1.3
2018-Apr-16 05:30N 35°30' E 140°02'0 0.0
2018-Apr-16 05:00N 35°30' E 140°02'0 0.0
2018-Apr-16 04:21N 35°30' E 140°02'0 0.0
2018-Apr-16 03:57N 35°30' E 140°02'0 0.0
2018-Apr-16 03:27N 35°30' E 140°02'0 0.0
2018-Apr-16 02:57N 35°30' E 140°02'0 0.0
2018-Apr-16 02:18N 35°30' E 140°02'0 0.0
2018-Apr-16 01:57N 35°30' E 140°02'0 0.0
2018-Apr-16 01:30N 35°30' E 140°02'0 0.0
2018-Apr-16 01:00N 35°30' E 140°02'0 0.0
2018-Apr-16 00:27N 35°30' E 140°02'0 0.0
2018-Apr-15 23:51N 35°30' E 140°02'0 0.0
2018-Apr-15 23:30N 35°30' E 140°02'0 0.0
2018-Apr-15 23:00N 35°30' E 140°02'0 0.0
2018-Apr-15 22:30N 35°30' E 140°02'2 3.9
2018-Apr-15 22:00N 35°31' E 140°00'2 3.3
2018-Apr-15 21:30N 35°33' E 140°01'5 9.2
2018-Apr-15 21:00N 35°36' E 140°05'1 1.7
2018-Apr-15 20:29N 35°36' E 140°06'0 0.0
2018-Apr-15 19:59N 35°36' E 140°06'0 0.0
2018-Apr-15 19:29N 35°36' E 140°06'0 0.0
2018-Apr-15 18:59N 35°36' E 140°06'0 0.0
2018-Apr-15 18:29N 35°36' E 140°06'0 0.0
2018-Apr-15 17:59N 35°36' E 140°06'0 0.0
2018-Apr-15 17:29N 35°36' E 140°06'0 0.0
2018-Apr-15 16:59N 35°36' E 140°06'0 0.0
2018-Apr-15 16:29N 35°36' E 140°06'0 0.0
2018-Apr-15 15:59N 35°36' E 140°06'0 0.0
2018-Apr-15 15:29N 35°36' E 140°06'0 0.0
2018-Apr-15 14:59N 35°36' E 140°06'0 0.0
2018-Apr-15 14:29N 35°36' E 140°06'0 0.0
2018-Apr-15 13:59N 35°36' E 140°06'0 0.0
2018-Apr-15 13:29N 35°36' E 140°06'0 0.0
2018-Apr-15 12:59N 35°36' E 140°06'0 0.0
2018-Apr-15 12:29N 35°36' E 140°06'0 0.0
2018-Apr-15 11:59N 35°36' E 140°06'0 0.0
2018-Apr-15 11:29N 35°36' E 140°06'0 0.0
2018-Apr-15 10:59N 35°36' E 140°06'0 0.0
2018-Apr-15 10:29N 35°36' E 140°06'0 0.0
2018-Apr-15 09:59N 35°36' E 140°06'0 0.0
2018-Apr-15 09:29N 35°36' E 140°06'0 0.0
2018-Apr-15 08:59N 35°36' E 140°06'0 0.0
2018-Apr-15 08:29N 35°36' E 140°06'0 0.0
2018-Apr-15 07:59N 35°36' E 140°06'0 0.0
2018-Apr-15 07:29N 35°36' E 140°06'0 0.0
2018-Apr-15 06:59N 35°36' E 140°06'0 0.0
2018-Apr-15 06:29N 35°36' E 140°06'0 0.0
2018-Apr-15 05:59N 35°36' E 140°06'0 0.0
2018-Apr-15 05:29N 35°36' E 140°06'0 0.0
2018-Apr-15 04:59N 35°36' E 140°06'0 0.0
2018-Apr-15 04:29N 35°36' E 140°06'0 0.0
2018-Apr-15 03:59N 35°36' E 140°06'0 0.0
2018-Apr-15 03:29N 35°36' E 140°06'0 0.0
2018-Apr-15 02:59N 35°36' E 140°06'0 0.0
2018-Apr-15 02:23N 35°36' E 140°06'0 0.0
2018-Apr-15 01:59N 35°36' E 140°06'0 0.0
2018-Apr-15 01:29N 35°36' E 140°06'0 0.0
2018-Apr-15 00:59N 35°36' E 140°06'0 0.0
2018-Apr-15 00:29N 35°36' E 140°06'0 0.0
2018-Apr-14 23:59N 35°36' E 140°06'0 0.0
2018-Apr-14 23:29N 35°36' E 140°06'0 0.0
2018-Apr-14 22:59N 35°36' E 140°06'0 0.0
2018-Apr-14 22:29N 35°36' E 140°06'0 0.0
2018-Apr-14 21:59N 35°36' E 140°06'0 0.0
2018-Apr-14 21:29N 35°36' E 140°06'0 0.0
2018-Apr-14 20:59N 35°36' E 140°06'0 0.0
2018-Apr-14 20:29N 35°36' E 140°06'0 0.0
2018-Apr-14 19:59N 35°36' E 140°06'0 0.0
2018-Apr-14 19:29N 35°36' E 140°06'0 0.0
2018-Apr-14 18:59N 35°36' E 140°06'0 0.0
2018-Apr-14 18:29N 35°36' E 140°06'0 0.0
2018-Apr-14 17:59N 35°36' E 140°06'0 0.0
2018-Apr-14 17:23N 35°36' E 140°06'0 0.0
2018-Apr-14 16:59N 35°36' E 140°06'0 0.0
2018-Apr-14 16:29N 35°36' E 140°06'0 0.0
2018-Apr-14 15:59N 35°36' E 140°06'0 0.0
2018-Apr-14 15:29N 35°36' E 140°06'0 0.0
2018-Apr-14 14:59N 35°36' E 140°06'0 0.0
2018-Apr-14 14:29N 35°36' E 140°06'0 0.0
2018-Apr-14 13:59N 35°36' E 140°06'0 0.0
2018-Apr-14 13:29N 35°36' E 140°06'0 0.0
2018-Apr-14 12:59N 35°36' E 140°06'0 0.0
2018-Apr-14 12:29N 35°36' E 140°06'0 0.0
2018-Apr-14 11:59N 35°36' E 140°06'0 0.0
2018-Apr-14 11:29N 35°36' E 140°06'0 0.0
2018-Apr-14 10:59N 35°36' E 140°06'0 0.0
2018-Apr-14 10:29N 35°36' E 140°06'0 0.0
2018-Apr-14 09:59N 35°36' E 140°06'0 0.0
2018-Apr-14 09:29N 35°36' E 140°06'0 0.0
2018-Apr-14 08:59N 35°36' E 140°06'0 0.0
2018-Apr-14 08:29N 35°36' E 140°06'0 0.0
2018-Apr-14 07:59N 35°36' E 140°06'0 0.0
2018-Apr-14 07:29N 35°36' E 140°06'0 0.0
2018-Apr-14 06:59N 35°36' E 140°06'3 6.3
2018-Apr-14 06:30N 35°35' E 140°03'714.5
2018-Apr-14 06:00N 35°32' E 139°55'610.8
2018-Apr-14 05:30N 35°32' E 139°48'0 0.1
2018-Apr-14 04:56N 35°32' E 139°48'0 0.0
2018-Apr-14 04:29N 35°32' E 139°48'0 0.0
2018-Apr-14 03:59N 35°32' E 139°48'0 0.0
2018-Apr-14 03:29N 35°32' E 139°48'0 0.0
2018-Apr-14 02:59N 35°32' E 139°48'0 0.0
2018-Apr-14 02:29N 35°32' E 139°48'  

Dump ship's entire track history